createdAt,value
2023-02-26T00:00:21.650Z,7.22
2023-02-26T00:02:51.470Z,6.13
2023-02-26T00:05:27.667Z,6.57
2023-02-26T00:07:54.989Z,5.72
2023-02-26T00:10:29.157Z,5.43
2023-02-26T00:19:07.418Z,5.57
2023-02-26T00:21:45.893Z,5.40
2023-02-26T00:24:17.985Z,6.15
2023-02-26T00:27:16.738Z,5.78
2023-02-26T00:29:44.312Z,6.60
2023-02-26T00:32:14.795Z,5.53
2023-02-26T00:34:42.458Z,5.32
2023-02-26T00:37:32.642Z,5.28
2023-02-26T00:40:41.185Z,5.47
2023-02-26T00:43:14.375Z,5.88
2023-02-26T00:45:47.597Z,5.38
2023-02-26T00:48:38.294Z,5.47
2023-02-26T00:51:28.439Z,5.65
2023-02-26T00:54:18.701Z,5.63
2023-02-26T00:56:45.517Z,6.05
2023-02-26T00:59:12.918Z,5.20
2023-02-26T01:01:40.189Z,5.68
2023-02-26T01:04:15.994Z,5.30
2023-02-26T01:06:55.199Z,4.68
2023-02-26T01:09:34.099Z,5.20
2023-02-26T01:12:28.130Z,5.57
2023-02-26T01:15:07.832Z,5.68
2023-02-26T01:21:58.042Z,5.35
2023-02-26T01:24:56.680Z,5.85
2023-02-26T01:47:29.390Z,6.18
2023-02-26T01:50:06.252Z,5.82
2023-02-26T01:53:11.138Z,5.85
2023-02-26T01:56:29.697Z,4.72
2023-02-26T01:59:12.946Z,5.95
2023-02-26T02:02:06.969Z,5.35
2023-02-26T02:13:53.345Z,6.20
2023-02-26T02:16:50.730Z,5.97
2023-02-26T02:24:38.791Z,5.47
2023-02-26T02:28:07.949Z,4.78
2023-02-26T02:42:00.065Z,6.25
2023-02-26T02:45:02.671Z,5.85
2023-02-26T02:51:01.547Z,6.15
2023-02-26T02:58:10.572Z,5.38
2023-02-26T03:00:41.633Z,5.60
2023-02-26T03:03:19.937Z,5.72
2023-02-26T03:05:47.544Z,5.80
2023-02-26T03:30:05.897Z,6.22
2023-02-26T03:33:14.920Z,7.03
2023-02-26T03:35:54.970Z,6.40
2023-02-26T03:38:38.750Z,5.68
2023-02-26T03:41:53.917Z,5.13
2023-02-26T03:44:28.091Z,5.88
2023-02-26T03:47:03.334Z,5.85
2023-02-26T03:49:50.489Z,6.07
2023-02-26T03:52:26.279Z,4.95
2023-02-26T03:55:28.577Z,5.82
2023-02-26T03:57:56.079Z,5.55
2023-02-26T04:00:24.316Z,6.13
2023-02-26T04:03:30.666Z,5.28
2023-02-26T04:06:01.548Z,6.75
2023-02-26T04:08:33.662Z,5.53
2023-02-26T04:11:08.472Z,5.70
2023-02-26T04:13:42.099Z,6.25
2023-02-26T04:16:12.029Z,5.30
2023-02-26T04:24:17.769Z,5.68
2023-02-26T04:26:45.970Z,6.25
2023-02-26T04:29:12.882Z,6.22
2023-02-26T04:31:40.825Z,6.82
2023-02-26T04:34:07.925Z,6.03
2023-02-26T04:36:45.569Z,5.72
2023-02-26T04:39:18.456Z,6.32
2023-02-26T04:41:46.597Z,6.78
2023-02-26T04:44:13.635Z,5.45
2023-02-26T04:46:41.071Z,5.40
2023-02-26T04:49:31.035Z,5.60
2023-02-26T04:52:05.917Z,6.65
2023-02-26T04:54:32.913Z,5.72
2023-02-26T04:56:59.997Z,6.30
2023-02-26T04:59:27.985Z,5.88
2023-02-26T05:01:58.803Z,5.80
2023-02-26T05:04:26.038Z,5.55
2023-02-26T05:06:53.159Z,6.00
2023-02-26T05:09:20.236Z,6.30
2023-02-26T05:11:48.251Z,5.30
2023-02-26T05:14:16.117Z,5.30
2023-02-26T05:16:49.589Z,6.28
2023-02-26T05:19:17.153Z,5.75
2023-02-26T05:21:47.482Z,5.65
2023-02-26T05:24:14.535Z,5.32
2023-02-26T05:26:41.892Z,5.85
2023-02-26T05:29:09.420Z,6.20
2023-02-26T05:31:39.382Z,5.97
2023-02-26T05:34:06.608Z,6.75
2023-02-26T05:36:33.375Z,6.20
2023-02-26T05:39:00.119Z,5.78
2023-02-26T05:41:27.255Z,6.50
2023-02-26T05:44:06.204Z,5.72
2023-02-26T05:46:34.234Z,5.68
2023-02-26T05:49:18.429Z,4.90
2023-02-26T05:51:45.484Z,5.45
2023-02-26T05:54:46.574Z,5.20
2023-02-26T05:57:13.540Z,5.18
2023-02-26T05:59:40.509Z,4.95
2023-02-26T06:02:08.408Z,5.30
2023-02-26T06:04:35.840Z,5.60
2023-02-26T06:07:03.033Z,4.90
2023-02-26T06:09:32.239Z,5.38
2023-02-26T06:11:59.154Z,4.75
2023-02-26T06:14:33.954Z,4.75
2023-02-26T06:17:11.913Z,5.13
2023-02-26T06:20:04.035Z,5.03
2023-02-26T06:22:39.139Z,5.00
2023-02-26T06:25:06.793Z,5.15
2023-02-26T06:27:33.590Z,4.55
2023-02-26T06:30:23.344Z,4.45
2023-02-26T06:33:04.752Z,4.72
2023-02-26T06:35:43.606Z,4.47
2023-02-26T06:38:13.286Z,5.07
2023-02-26T06:41:10.186Z,4.93
2023-02-26T06:43:39.245Z,4.38
2023-02-26T06:46:06.704Z,4.47
2023-02-26T06:48:48.023Z,4.53
2023-02-26T06:51:19.041Z,4.57
2023-02-26T06:53:47.134Z,4.75
2023-02-26T06:56:24.226Z,5.70
2023-02-26T06:59:01.507Z,4.05
2023-02-26T07:01:28.731Z,5.00
2023-02-26T07:04:17.133Z,4.78
2023-02-26T07:06:48.169Z,3.90
2023-02-26T07:09:15.024Z,4.95
2023-02-26T07:11:42.009Z,4.55
2023-02-26T07:14:15.397Z,4.70
2023-02-26T07:16:42.306Z,4.25
2023-02-26T07:19:09.336Z,4.25
2023-02-26T07:21:39.023Z,4.70
2023-02-26T07:24:07.366Z,5.07
2023-02-26T07:26:39.695Z,4.40
2023-02-26T07:29:09.785Z,5.07
2023-02-26T07:31:37.343Z,4.60
2023-02-26T07:34:10.053Z,4.55
2023-02-26T07:36:47.411Z,4.95
2023-02-26T07:39:14.260Z,4.47
2023-02-26T07:41:43.216Z,5.32
2023-02-26T07:44:32.945Z,4.45
2023-02-26T07:47:11.372Z,4.70
2023-02-26T07:49:40.161Z,4.00
2023-02-26T07:52:16.842Z,5.20
2023-02-26T07:54:48.101Z,4.32
2023-02-26T07:57:14.839Z,4.65
2023-02-26T08:02:34.617Z,4.07
2023-02-26T08:05:04.578Z,4.57
2023-02-26T08:07:33.889Z,4.78
2023-02-26T08:10:08.018Z,4.88
2023-02-26T08:15:21.368Z,5.05
2023-02-26T08:17:53.117Z,4.00
2023-02-26T08:20:20.451Z,4.00
2023-02-26T08:25:38.985Z,4.40
2023-02-26T08:28:08.678Z,4.65
2023-02-26T08:30:59.393Z,3.97
2023-02-26T08:33:28.036Z,4.07
2023-02-26T08:36:10.708Z,4.70
2023-02-26T08:39:08.233Z,3.83
2023-02-26T08:41:36.507Z,4.22
2023-02-26T08:44:09.325Z,3.92
2023-02-26T08:46:36.485Z,3.78
2023-02-26T08:49:03.448Z,4.65
2023-02-26T08:51:30.816Z,4.43
2023-02-26T08:54:03.440Z,4.30
2023-02-26T08:56:32.315Z,4.55
2023-02-26T08:58:59.594Z,4.43
2023-02-26T09:01:29.533Z,4.50
2023-02-26T09:03:57.387Z,4.53
2023-02-26T09:06:24.765Z,4.28
2023-02-26T09:08:54.772Z,3.75
2023-02-26T09:11:25.063Z,4.80
2023-02-26T09:13:56.406Z,4.50
2023-02-26T09:21:49.069Z,5.40
2023-02-26T09:24:16.008Z,6.50
2023-02-26T09:26:45.644Z,4.32
2023-02-26T09:29:27.612Z,5.07
2023-02-26T09:31:54.479Z,4.93
2023-02-26T09:37:13.976Z,3.83
2023-02-26T09:39:41.712Z,4.65
2023-02-26T09:42:33.769Z,5.40
2023-02-26T09:45:30.028Z,4.10
2023-02-26T09:50:49.446Z,3.97
2023-02-26T09:56:39.858Z,5.10
2023-02-26T09:59:09.540Z,3.90
2023-02-26T10:02:01.001Z,4.00
2023-02-26T10:04:45.370Z,5.30
2023-02-26T10:10:54.557Z,5.53
2023-02-26T10:13:33.370Z,4.82
2023-02-26T10:16:16.611Z,4.00
2023-02-26T10:18:50.549Z,4.25
2023-02-26T10:21:39.712Z,4.18
2023-02-26T10:24:18.637Z,4.15
2023-02-26T10:38:19.108Z,4.50
2023-02-26T14:17:55.347Z,3.00
2023-02-26T14:20:35.237Z,2.83
2023-02-26T14:23:33.491Z,3.63
2023-02-26T14:26:17.220Z,3.53
2023-02-26T14:28:59.226Z,2.83
2023-02-26T14:32:15.597Z,3.17
2023-02-26T14:34:55.597Z,2.92
2023-02-26T14:37:28.852Z,3.50
2023-02-26T14:40:11.717Z,2.90
2023-02-26T14:42:45.316Z,3.67
2023-02-26T14:45:39.123Z,4.13
2023-02-26T14:48:19.114Z,3.20
2023-02-26T14:57:51.829Z,3.45
2023-02-26T15:00:36.996Z,3.47
2023-02-26T15:03:15.217Z,2.95
2023-02-26T15:06:13.603Z,3.35
2023-02-26T15:09:15.750Z,3.05
2023-02-26T15:12:03.135Z,2.65
2023-02-26T15:14:36.277Z,3.33
2023-02-26T15:17:40.909Z,3.17
2023-02-26T15:28:59.984Z,4.07
2023-02-26T15:35:00.453Z,3.03
2023-02-26T15:37:39.169Z,3.15
2023-02-26T15:40:24.094Z,2.85
2023-02-26T15:42:53.975Z,2.75
2023-02-26T15:45:24.429Z,3.30
2023-02-26T15:47:56.601Z,2.85
2023-02-26T15:50:29.437Z,2.53
2023-02-26T15:53:01.190Z,2.70
2023-02-26T15:55:35.460Z,3.65
2023-02-26T15:58:04.079Z,2.92
2023-02-26T16:00:35.518Z,3.53
2023-02-26T16:03:03.123Z,3.58
2023-02-26T16:05:35.166Z,3.05
2023-02-26T16:08:02.175Z,2.85
2023-02-26T16:10:41.382Z,2.90
2023-02-26T16:13:15.298Z,3.30
2023-02-26T16:15:42.944Z,3.05
2023-02-26T16:18:22.408Z,2.75
2023-02-26T16:20:58.837Z,3.63
2023-02-26T16:23:53.266Z,3.25
2023-02-26T16:26:33.372Z,3.35
2023-02-26T16:29:41.127Z,5.15
2023-02-26T16:32:12.304Z,3.05
2023-02-26T16:34:54.529Z,3.33
2023-02-26T16:37:32.778Z,2.55
2023-02-26T16:40:21.298Z,3.03
2023-02-26T16:42:51.312Z,3.63
2023-02-26T16:45:36.409Z,3.50
2023-02-26T16:48:29.411Z,3.42
2023-02-26T16:51:08.727Z,3.33
2023-02-26T16:53:47.546Z,2.55
2023-02-26T16:56:19.174Z,3.50
2023-02-26T16:58:49.236Z,2.45
2023-02-26T17:01:19.177Z,4.57
2023-02-26T17:03:50.035Z,3.10
2023-02-26T17:06:20.027Z,2.72
2023-02-26T17:09:06.817Z,3.83
2023-02-26T17:12:04.951Z,4.82
2023-02-26T17:15:00.610Z,3.30
2023-02-26T17:17:31.636Z,3.30
2023-02-26T17:28:25.590Z,5.95
2023-02-26T17:31:18.296Z,5.43
2023-02-26T17:36:27.040Z,8.73
2023-02-26T17:44:39.248Z,5.82
2023-02-26T17:47:06.961Z,3.95
2023-02-26T17:49:36.825Z,4.97
2023-02-26T17:54:45.844Z,4.63
2023-02-26T17:57:26.471Z,3.70
2023-02-26T17:59:53.750Z,3.63
2023-02-26T18:02:28.617Z,4.38
2023-02-26T18:04:55.786Z,4.65
2023-02-26T18:07:24.588Z,4.32
2023-02-26T18:09:51.318Z,5.40
2023-02-26T18:12:21.845Z,4.40
2023-02-26T18:14:49.484Z,4.88
2023-02-26T18:17:22.723Z,5.75
2023-02-26T18:19:51.211Z,3.17
2023-02-26T18:22:26.220Z,3.67
2023-02-26T18:24:54.170Z,3.78
2023-02-26T18:27:32.703Z,5.68
2023-02-26T18:30:03.023Z,4.88
2023-02-26T18:33:33.871Z,4.78
2023-02-26T18:35:59.317Z,6.10
2023-02-26T18:38:30.169Z,4.78
2023-02-26T18:41:00.325Z,4.15
2023-02-26T18:43:33.613Z,3.15
2023-02-26T18:46:06.189Z,5.13
2023-02-26T18:48:33.584Z,4.22
2023-02-26T18:51:20.669Z,3.83
2023-02-26T18:53:55.461Z,4.32
2023-02-26T18:56:24.179Z,3.65
2023-02-26T18:58:51.115Z,5.18
2023-02-26T19:01:44.280Z,4.10
2023-02-26T19:04:11.297Z,4.28
2023-02-26T19:06:45.153Z,4.82
2023-02-26T19:09:15.434Z,4.93
2023-02-26T19:11:42.765Z,5.40
2023-02-26T19:14:10.184Z,4.15
2023-02-26T19:16:39.549Z,4.32
2023-02-26T19:19:11.771Z,3.45
2023-02-26T19:21:42.182Z,5.78
2023-02-26T19:24:11.668Z,5.75
2023-02-26T19:26:43.207Z,4.03
2023-02-26T19:29:20.232Z,4.72
2023-02-26T19:31:47.777Z,4.40
2023-02-26T19:36:56.606Z,4.43
2023-02-26T19:39:24.265Z,4.07
2023-02-26T19:41:53.990Z,4.65
2023-02-26T19:44:22.980Z,4.47
2023-02-26T19:46:50.487Z,5.18
2023-02-26T19:49:20.266Z,3.90
2023-02-26T19:51:47.735Z,3.80
2023-02-26T19:54:16.657Z,4.10
2023-02-26T19:56:44.398Z,3.90
2023-02-26T19:59:14.269Z,3.95
2023-02-26T20:01:43.947Z,4.80
2023-02-26T20:04:11.338Z,5.47
2023-02-26T20:06:38.472Z,3.58
2023-02-26T20:16:29.770Z,4.20
2023-02-26T20:18:58.082Z,4.57
2023-02-26T20:21:33.470Z,5.18
2023-02-26T20:24:00.807Z,4.30
2023-02-26T20:26:28.994Z,4.35
2023-02-26T20:28:55.919Z,4.43
2023-02-26T20:31:23.053Z,4.90
2023-02-26T20:33:50.628Z,4.60
2023-02-26T20:36:23.312Z,4.25
2023-02-26T20:38:50.434Z,3.53
2023-02-26T20:41:20.544Z,3.85
2023-02-26T20:43:57.626Z,3.28
2023-02-26T20:46:38.947Z,4.05
2023-02-26T20:58:08.696Z,2.92
2023-02-26T21:11:37.176Z,3.15
2023-02-26T21:14:09.969Z,2.78
2023-02-26T21:16:39.785Z,4.30
2023-02-26T21:19:17.066Z,3.35
2023-02-26T21:21:45.759Z,3.22
2023-02-26T21:24:25.905Z,4.30
2023-02-26T21:26:53.385Z,3.05
2023-02-26T21:29:21.555Z,2.60
2023-02-26T21:34:43.792Z,3.70
2023-02-26T21:37:12.603Z,3.03
2023-02-26T21:39:53.962Z,3.60
2023-02-26T21:42:26.337Z,3.15
2023-02-26T21:45:32.914Z,3.20
2023-02-26T21:53:20.415Z,3.55
2023-02-26T22:56:42.409Z,3.83
